sensor_id;sensor_type;location;lat;lon;timestamp;P1;durP1;ratioP1;P2;durP2;ratioP2
51602;SDS011;37954;51.980;5.850;2023-04-02T00:01:44;5.20;;;4.70;;
51602;SDS011;37954;51.980;5.850;2023-04-02T00:05:57;4.67;;;4.20;;
51602;SDS011;37954;51.980;5.850;2023-04-02T00:15:10;4.67;;;4.20;;
51602;SDS011;37954;51.980;5.850;2023-04-02T00:19:24;6.17;;;4.30;;
51602;SDS011;37954;51.980;5.850;2023-04-02T00:23:41;4.33;;;3.93;;
51602;SDS011;37954;51.980;5.850;2023-04-02T00:27:54;5.43;;;4.03;;
51602;SDS011;37954;51.980;5.850;2023-04-02T00:32:08;6.30;;;4.37;;
51602;SDS011;37954;51.980;5.850;2023-04-02T00:36:30;7.13;;;4.90;;
51602;SDS011;37954;51.980;5.850;2023-04-02T00:40:46;5.07;;;4.27;;
51602;SDS011;37954;51.980;5.850;2023-04-02T00:45:00;6.67;;;5.07;;
51602;SDS011;37954;51.980;5.850;2023-04-02T00:49:24;6.57;;;4.97;;
51602;SDS011;37954;51.980;5.850;2023-04-02T00:53:45;5.37;;;4.30;;
51602;SDS011;37954;51.980;5.850;2023-04-02T00:57:59;5.23;;;4.67;;
51602;SDS011;37954;51.980;5.850;2023-04-02T01:06:29;5.97;;;4.27;;
51602;SDS011;37954;51.980;5.850;2023-04-02T01:15:41;5.80;;;4.17;;
51602;SDS011;37954;51.980;5.850;2023-04-02T01:24:54;6.37;;;4.60;;
51602;SDS011;37954;51.980;5.850;2023-04-02T01:29:09;5.03;;;4.47;;
51602;SDS011;37954;51.980;5.850;2023-04-02T01:33:27;5.00;;;3.70;;
51602;SDS011;37954;51.980;5.850;2023-04-02T01:37:44;4.93;;;3.80;;
51602;SDS011;37954;51.980;5.850;2023-04-02T01:46:46;6.57;;;4.23;;
51602;SDS011;37954;51.980;5.850;2023-04-02T01:50:59;5.73;;;4.37;;
51602;SDS011;37954;51.980;5.850;2023-04-02T01:55:22;5.80;;;4.57;;
51602;SDS011;37954;51.980;5.850;2023-04-02T01:59:44;5.80;;;4.10;;
51602;SDS011;37954;51.980;5.850;2023-04-02T02:03:56;5.20;;;4.33;;
51602;SDS011;37954;51.980;5.850;2023-04-02T02:08:12;7.47;;;4.40;;
51602;SDS011;37954;51.980;5.850;2023-04-02T02:12:37;5.43;;;4.90;;
51602;SDS011;37954;51.980;5.850;2023-04-02T02:16:49;7.07;;;5.43;;
51602;SDS011;37954;51.980;5.850;2023-04-02T02:21:04;7.10;;;5.67;;
51602;SDS011;37954;51.980;5.850;2023-04-02T02:25:20;10.70;;;7.00;;
51602;SDS011;37954;51.980;5.850;2023-04-02T02:29:38;15.60;;;6.47;;
51602;SDS011;37954;51.980;5.850;2023-04-02T02:33:55;8.23;;;6.27;;
51602;SDS011;37954;51.980;5.850;2023-04-02T02:42:56;7.63;;;5.70;;
51602;SDS011;37954;51.980;5.850;2023-04-02T02:47:13;6.47;;;5.73;;
51602;SDS011;37954;51.980;5.850;2023-04-02T02:52:31;6.17;;;5.57;;
51602;SDS011;37954;51.980;5.850;2023-04-02T02:56:47;6.40;;;5.43;;
51602;SDS011;37954;51.980;5.850;2023-04-02T03:01:04;8.83;;;5.10;;
51602;SDS011;37954;51.980;5.850;2023-04-02T03:05:18;6.60;;;5.07;;
51602;SDS011;37954;51.980;5.850;2023-04-02T03:09:45;5.53;;;4.60;;
51602;SDS011;37954;51.980;5.850;2023-04-02T03:14:27;7.87;;;4.80;;
51602;SDS011;37954;51.980;5.850;2023-04-02T03:18:47;5.37;;;3.87;;
51602;SDS011;37954;51.980;5.850;2023-04-02T03:23:22;5.43;;;4.17;;
51602;SDS011;37954;51.980;5.850;2023-04-02T03:27:41;4.70;;;3.80;;
51602;SDS011;37954;51.980;5.850;2023-04-02T03:31:58;5.23;;;3.90;;
51602;SDS011;37954;51.980;5.850;2023-04-02T03:36:50;5.50;;;4.40;;
51602;SDS011;37954;51.980;5.850;2023-04-02T03:41:02;7.10;;;4.97;;
51602;SDS011;37954;51.980;5.850;2023-04-02T03:45:21;6.73;;;5.20;;
51602;SDS011;37954;51.980;5.850;2023-04-02T03:50:12;7.70;;;5.23;;
51602;SDS011;37954;51.980;5.850;2023-04-02T03:54:24;7.90;;;5.10;;
51602;SDS011;37954;51.980;5.850;2023-04-02T04:03:43;5.93;;;4.97;;
51602;SDS011;37954;51.980;5.850;2023-04-02T04:07:41;7.40;;;5.03;;
51602;SDS011;37954;51.980;5.850;2023-04-02T04:12:19;6.80;;;6.10;;
51602;SDS011;37954;51.980;5.850;2023-04-02T04:16:33;9.20;;;5.33;;
51602;SDS011;37954;51.980;5.850;2023-04-02T04:20:57;10.37;;;5.70;;
51602;SDS011;37954;51.980;5.850;2023-04-02T04:34:28;9.47;;;5.57;;
51602;SDS011;37954;51.980;5.850;2023-04-02T04:38:48;6.37;;;4.53;;
51602;SDS011;37954;51.980;5.850;2023-04-02T04:43:11;6.50;;;4.80;;
51602;SDS011;37954;51.980;5.850;2023-04-02T04:47:30;7.87;;;4.80;;
51602;SDS011;37954;51.980;5.850;2023-04-02T04:51:50;6.50;;;4.27;;
51602;SDS011;37954;51.980;5.850;2023-04-02T04:56:06;5.83;;;3.90;;
51602;SDS011;37954;51.980;5.850;2023-04-02T05:00:39;5.60;;;4.20;;
51602;SDS011;37954;51.980;5.850;2023-04-02T05:05:01;7.50;;;4.00;;
51602;SDS011;37954;51.980;5.850;2023-04-02T05:09:29;4.80;;;3.70;;
51602;SDS011;37954;51.980;5.850;2023-04-02T05:13:54;5.37;;;3.17;;
51602;SDS011;37954;51.980;5.850;2023-04-02T05:18:17;6.10;;;3.17;;
51602;SDS011;37954;51.980;5.850;2023-04-02T05:22:45;6.13;;;2.83;;
51602;SDS011;37954;51.980;5.850;2023-04-02T05:27:01;2.80;;;2.30;;
51602;SDS011;37954;51.980;5.850;2023-04-02T05:31:24;4.00;;;2.43;;
51602;SDS011;37954;51.980;5.850;2023-04-02T05:35:44;4.37;;;3.07;;
51602;SDS011;37954;51.980;5.850;2023-04-02T05:40:04;5.20;;;2.43;;
51602;SDS011;37954;51.980;5.850;2023-04-02T05:44:27;4.70;;;2.30;;
51602;SDS011;37954;51.980;5.850;2023-04-02T05:48:41;7.30;;;2.20;;
51602;SDS011;37954;51.980;5.850;2023-04-02T05:53:15;5.90;;;2.10;;
51602;SDS011;37954;51.980;5.850;2023-04-02T05:57:32;2.93;;;1.57;;
51602;SDS011;37954;51.980;5.850;2023-04-02T06:02:16;2.77;;;1.80;;
51602;SDS011;37954;51.980;5.850;2023-04-02T06:10:58;2.97;;;1.50;;
51602;SDS011;37954;51.980;5.850;2023-04-02T06:15:18;1.97;;;1.33;;
51602;SDS011;37954;51.980;5.850;2023-04-02T06:19:35;1.93;;;1.50;;
51602;SDS011;37954;51.980;5.850;2023-04-02T06:23:55;4.00;;;1.97;;
51602;SDS011;37954;51.980;5.850;2023-04-02T06:28:14;2.80;;;1.60;;
51602;SDS011;37954;51.980;5.850;2023-04-02T06:32:35;2.53;;;1.30;;
51602;SDS011;37954;51.980;5.850;2023-04-02T06:36:49;2.73;;;1.67;;
51602;SDS011;37954;51.980;5.850;2023-04-02T06:41:10;2.13;;;1.73;;
51602;SDS011;37954;51.980;5.850;2023-04-02T06:45:46;4.30;;;2.27;;
51602;SDS011;37954;51.980;5.850;2023-04-02T06:54:29;1.43;;;1.33;;
51602;SDS011;37954;51.980;5.850;2023-04-02T06:58:47;2.17;;;1.40;;
51602;SDS011;37954;51.980;5.850;2023-04-02T07:02:59;2.43;;;1.63;;
51602;SDS011;37954;51.980;5.850;2023-04-02T07:07:15;3.50;;;1.90;;
51602;SDS011;37954;51.980;5.850;2023-04-02T07:11:29;2.60;;;1.50;;
51602;SDS011;37954;51.980;5.850;2023-04-02T07:15:45;2.77;;;1.83;;
51602;SDS011;37954;51.980;5.850;2023-04-02T07:19:59;3.07;;;1.80;;
51602;SDS011;37954;51.980;5.850;2023-04-02T07:24:11;2.73;;;1.90;;
51602;SDS011;37954;51.980;5.850;2023-04-02T07:28:23;4.93;;;1.90;;
51602;SDS011;37954;51.980;5.850;2023-04-02T07:32:35;3.43;;;2.00;;
51602;SDS011;37954;51.980;5.850;2023-04-02T07:36:48;2.70;;;1.90;;
51602;SDS011;37954;51.980;5.850;2023-04-02T07:41:04;3.30;;;1.90;;
51602;SDS011;37954;51.980;5.850;2023-04-02T07:45:16;2.10;;;1.83;;
51602;SDS011;37954;51.980;5.850;2023-04-02T07:49:28;3.53;;;2.20;;
51602;SDS011;37954;51.980;5.850;2023-04-02T07:53:41;4.03;;;1.90;;
51602;SDS011;37954;51.980;5.850;2023-04-02T07:57:54;6.90;;;2.17;;
51602;SDS011;37954;51.980;5.850;2023-04-02T08:02:15;3.73;;;2.10;;
51602;SDS011;37954;51.980;5.850;2023-04-02T08:06:29;5.27;;;2.20;;
51602;SDS011;37954;51.980;5.850;2023-04-02T08:10:41;2.63;;;2.10;;
51602;SDS011;37954;51.980;5.850;2023-04-02T08:14:53;3.27;;;1.90;;
51602;SDS011;37954;51.980;5.850;2023-04-02T08:19:05;4.47;;;2.03;;
51602;SDS011;37954;51.980;5.850;2023-04-02T08:23:16;3.00;;;2.20;;
51602;SDS011;37954;51.980;5.850;2023-04-02T08:27:28;5.13;;;2.17;;
51602;SDS011;37954;51.980;5.850;2023-04-02T08:31:40;3.60;;;2.10;;
51602;SDS011;37954;51.980;5.850;2023-04-02T08:35:52;5.37;;;1.80;;
51602;SDS011;37954;51.980;5.850;2023-04-02T08:40:04;3.83;;;1.83;;
51602;SDS011;37954;51.980;5.850;2023-04-02T08:44:22;2.67;;;1.83;;
51602;SDS011;37954;51.980;5.850;2023-04-02T08:48:48;2.57;;;2.17;;
51602;SDS011;37954;51.980;5.850;2023-04-02T08:53:08;2.87;;;2.20;;
51602;SDS011;37954;51.980;5.850;2023-04-02T09:01:59;3.20;;;2.20;;
51602;SDS011;37954;51.980;5.850;2023-04-02T09:06:15;2.60;;;1.80;;
51602;SDS011;37954;51.980;5.850;2023-04-02T09:10:35;1.77;;;1.67;;
51602;SDS011;37954;51.980;5.850;2023-04-02T09:19:32;2.60;;;1.80;;
51602;SDS011;37954;51.980;5.850;2023-04-02T09:23:48;2.53;;;1.97;;
51602;SDS011;37954;51.980;5.850;2023-04-02T09:28:01;3.37;;;1.73;;
51602;SDS011;37954;51.980;5.850;2023-04-02T09:32:48;2.77;;;1.87;;
51602;SDS011;37954;51.980;5.850;2023-04-02T09:37:19;4.00;;;2.43;;
51602;SDS011;37954;51.980;5.850;2023-04-02T09:41:33;2.77;;;1.57;;
51602;SDS011;37954;51.980;5.850;2023-04-02T09:45:54;2.60;;;1.67;;
51602;SDS011;37954;51.980;5.850;2023-04-02T09:54:33;1.90;;;1.27;;
51602;SDS011;37954;51.980;5.850;2023-04-02T10:03:29;2.03;;;1.43;;
51602;SDS011;37954;51.980;5.850;2023-04-02T10:08:03;2.30;;;1.40;;
51602;SDS011;37954;51.980;5.850;2023-04-02T10:12:17;1.87;;;1.27;;
51602;SDS011;37954;51.980;5.850;2023-04-02T10:16:32;2.27;;;1.37;;
51602;SDS011;37954;51.980;5.850;2023-04-02T10:20:46;2.40;;;1.60;;
51602;SDS011;37954;51.980;5.850;2023-04-02T10:25:04;1.50;;;1.17;;
51602;SDS011;37954;51.980;5.850;2023-04-02T10:34:00;2.70;;;1.52;;
51602;SDS011;37954;51.980;5.850;2023-04-02T10:38:26;3.42;;;1.92;;
51602;SDS011;37954;51.980;5.850;2023-04-02T10:51:34;3.70;;;1.52;;
51602;SDS011;37954;51.980;5.850;2023-04-02T10:55:52;4.55;;;2.63;;
51602;SDS011;37954;51.980;5.850;2023-04-02T11:04:42;1.60;;;1.42;;
51602;SDS011;37954;51.980;5.850;2023-04-02T11:08:59;1.48;;;1.35;;
51602;SDS011;37954;51.980;5.850;2023-04-02T11:17:33;1.52;;;1.42;;
51602;SDS011;37954;51.980;5.850;2023-04-02T11:21:46;2.83;;;1.67;;
51602;SDS011;37954;51.980;5.850;2023-04-02T11:26:30;7.85;;;1.95;;
51602;SDS011;37954;51.980;5.850;2023-04-02T11:30:46;3.47;;;2.08;;
51602;SDS011;37954;51.980;5.850;2023-04-02T11:35:22;1.63;;;1.40;;
51602;SDS011;37954;51.980;5.850;2023-04-02T11:39:51;3.00;;;1.60;;
51602;SDS011;37954;51.980;5.850;2023-04-02T11:44:20;2.85;;;1.55;;
51602;SDS011;37954;51.980;5.850;2023-04-02T11:48:34;2.60;;;1.40;;
51602;SDS011;37954;51.980;5.850;2023-04-02T12:01:42;2.05;;;1.65;;
51602;SDS011;37954;51.980;5.850;2023-04-02T12:10:59;4.47;;;1.77;;
51602;SDS011;37954;51.980;5.850;2023-04-02T12:19:36;2.20;;;1.58;;
51602;SDS011;37954;51.980;5.850;2023-04-02T12:23:48;3.38;;;1.52;;
51602;SDS011;37954;51.980;5.850;2023-04-02T12:28:05;1.83;;;1.45;;
51602;SDS011;37954;51.980;5.850;2023-04-02T12:36:39;1.80;;;1.17;;
51602;SDS011;37954;51.980;5.850;2023-04-02T12:41:14;1.98;;;1.33;;
51602;SDS011;37954;51.980;5.850;2023-04-02T12:45:40;3.13;;;1.40;;
51602;SDS011;37954;51.980;5.850;2023-04-02T12:49:53;2.13;;;1.20;;
51602;SDS011;37954;51.980;5.850;2023-04-02T12:54:09;2.38;;;1.42;;
51602;SDS011;37954;51.980;5.850;2023-04-02T12:58:41;2.75;;;1.23;;
51602;SDS011;37954;51.980;5.850;2023-04-02T13:03:00;2.63;;;1.30;;
51602;SDS011;37954;51.980;5.850;2023-04-02T13:07:15;2.65;;;1.15;;
51602;SDS011;37954;51.980;5.850;2023-04-02T13:11:35;3.22;;;1.25;;
51602;SDS011;37954;51.980;5.850;2023-04-02T13:16:03;1.20;;;1.10;;
51602;SDS011;37954;51.980;5.850;2023-04-02T13:20:35;3.58;;;1.40;;
51602;SDS011;37954;51.980;5.850;2023-04-02T13:24:49;1.50;;;1.13;;
51602;SDS011;37954;51.980;5.850;2023-04-02T13:29:16;2.90;;;1.00;;
51602;SDS011;37954;51.980;5.850;2023-04-02T13:33:39;1.65;;;1.17;;
51602;SDS011;37954;51.980;5.850;2023-04-02T13:37:51;2.05;;;1.30;;
51602;SDS011;37954;51.980;5.850;2023-04-02T13:42:02;2.88;;;1.20;;
51602;SDS011;37954;51.980;5.850;2023-04-02T13:50:53;5.13;;;1.30;;
51602;SDS011;37954;51.980;5.850;2023-04-02T13:55:05;1.55;;;1.17;;
51602;SDS011;37954;51.980;5.850;2023-04-02T13:59:17;1.77;;;1.10;;
51602;SDS011;37954;51.980;5.850;2023-04-02T14:03:28;2.15;;;1.20;;
51602;SDS011;37954;51.980;5.850;2023-04-02T14:34:58;1.88;;;1.27;;
51602;SDS011;37954;51.980;5.850;2023-04-02T14:39:02;2.03;;;1.20;;
51602;SDS011;37954;51.980;5.850;2023-04-02T14:43:26;1.65;;;1.27;;
51602;SDS011;37954;51.980;5.850;2023-04-02T14:47:47;3.42;;;1.67;;
51602;SDS011;37954;51.980;5.850;2023-04-02T14:52:04;1.92;;;1.42;;
51602;SDS011;37954;51.980;5.850;2023-04-02T14:56:21;2.97;;;1.40;;
51602;SDS011;37954;51.980;5.850;2023-04-02T15:00:42;2.08;;;1.10;;
51602;SDS011;37954;51.980;5.850;2023-04-02T15:05:10;2.17;;;1.20;;
51602;SDS011;37954;51.980;5.850;2023-04-02T15:09:33;1.45;;;1.00;;
51602;SDS011;37954;51.980;5.850;2023-04-02T15:13:51;3.22;;;1.20;;
51602;SDS011;37954;51.980;5.850;2023-04-02T15:18:15;3.25;;;0.90;;
51602;SDS011;37954;51.980;5.850;2023-04-02T15:22:30;1.53;;;1.20;;
51602;SDS011;37954;51.980;5.850;2023-04-02T15:31:28;3.60;;;1.02;;
51602;SDS011;37954;51.980;5.850;2023-04-02T15:35:42;1.05;;;0.95;;
51602;SDS011;37954;51.980;5.850;2023-04-02T15:40:06;1.33;;;1.13;;
51602;SDS011;37954;51.980;5.850;2023-04-02T15:44:30;1.67;;;1.00;;
51602;SDS011;37954;51.980;5.850;2023-04-02T15:53:15;1.73;;;1.05;;
51602;SDS011;37954;51.980;5.850;2023-04-02T16:06:55;1.47;;;0.93;;
51602;SDS011;37954;51.980;5.850;2023-04-02T16:11:23;4.50;;;1.40;;
51602;SDS011;37954;51.980;5.850;2023-04-02T16:15:37;3.93;;;1.10;;
51602;SDS011;37954;51.980;5.850;2023-04-02T16:19:56;1.70;;;1.10;;
51602;SDS011;37954;51.980;5.850;2023-04-02T16:24:18;1.23;;;1.07;;
51602;SDS011;37954;51.980;5.850;2023-04-02T16:28:32;1.60;;;0.77;;
51602;SDS011;37954;51.980;5.850;2023-04-02T16:37:38;3.33;;;1.10;;
51602;SDS011;37954;51.980;5.850;2023-04-02T17:08:41;1.80;;;1.00;;
51602;SDS011;37954;51.980;5.850;2023-04-02T17:17:24;1.97;;;1.13;;
51602;SDS011;37954;51.980;5.850;2023-04-02T17:21:36;1.83;;;1.00;;
51602;SDS011;37954;51.980;5.850;2023-04-02T17:25:55;4.00;;;1.27;;
51602;SDS011;37954;51.980;5.850;2023-04-02T17:30:17;2.13;;;1.07;;
51602;SDS011;37954;51.980;5.850;2023-04-02T17:34:45;1.93;;;1.20;;
51602;SDS011;37954;51.980;5.850;2023-04-02T17:48:27;1.87;;;1.27;;
51602;SDS011;37954;51.980;5.850;2023-04-02T17:52:45;2.97;;;1.23;;
51602;SDS011;37954;51.980;5.850;2023-04-02T17:57:29;3.00;;;1.00;;
51602;SDS011;37954;51.980;5.850;2023-04-02T18:02:00;1.77;;;1.20;;
51602;SDS011;37954;51.980;5.850;2023-04-02T18:06:20;2.53;;;1.30;;
51602;SDS011;37954;51.980;5.850;2023-04-02T18:42:50;3.50;;;1.93;;
51602;SDS011;37954;51.980;5.850;2023-04-02T18:52:03;1.73;;;1.47;;
51602;SDS011;37954;51.980;5.850;2023-04-02T18:56:22;4.17;;;2.20;;
51602;SDS011;37954;51.980;5.850;2023-04-02T19:00:39;5.17;;;2.57;;
51602;SDS011;37954;51.980;5.850;2023-04-02T19:09:41;2.80;;;1.80;;
51602;SDS011;37954;51.980;5.850;2023-04-02T19:13:58;3.77;;;1.20;;
51602;SDS011;37954;51.980;5.850;2023-04-02T19:18:17;1.57;;;1.27;;
51602;SDS011;37954;51.980;5.850;2023-04-02T19:36:08;5.83;;;1.50;;
51602;SDS011;37954;51.980;5.850;2023-04-02T19:40:37;5.07;;;2.30;;
51602;SDS011;37954;51.980;5.850;2023-04-02T19:44:58;3.93;;;2.17;;
51602;SDS011;37954;51.980;5.850;2023-04-02T19:49:11;2.63;;;1.77;;
51602;SDS011;37954;51.980;5.850;2023-04-02T19:53:32;3.27;;;2.10;;
51602;SDS011;37954;51.980;5.850;2023-04-02T19:57:45;3.13;;;1.73;;
51602;SDS011;37954;51.980;5.850;2023-04-02T20:01:57;2.97;;;1.63;;
51602;SDS011;37954;51.980;5.850;2023-04-02T20:06:16;3.07;;;1.57;;
51602;SDS011;37954;51.980;5.850;2023-04-02T20:10:28;3.23;;;2.10;;
51602;SDS011;37954;51.980;5.850;2023-04-02T20:14:39;3.17;;;2.03;;
51602;SDS011;37954;51.980;5.850;2023-04-02T20:18:51;2.40;;;1.60;;
51602;SDS011;37954;51.980;5.850;2023-04-02T20:23:03;1.93;;;1.67;;
51602;SDS011;37954;51.980;5.850;2023-04-02T20:27:15;2.30;;;1.60;;
51602;SDS011;37954;51.980;5.850;2023-04-02T20:31:28;2.90;;;1.90;;
51602;SDS011;37954;51.980;5.850;2023-04-02T20:35:40;3.03;;;1.57;;
51602;SDS011;37954;51.980;5.850;2023-04-02T20:39:51;2.70;;;1.63;;
51602;SDS011;37954;51.980;5.850;2023-04-02T20:44:03;3.47;;;1.80;;
51602;SDS011;37954;51.980;5.850;2023-04-02T20:48:15;3.40;;;1.70;;
51602;SDS011;37954;51.980;5.850;2023-04-02T20:52:27;1.63;;;1.30;;
51602;SDS011;37954;51.980;5.850;2023-04-02T20:56:40;2.87;;;1.73;;
51602;SDS011;37954;51.980;5.850;2023-04-02T21:00:53;2.60;;;1.40;;
51602;SDS011;37954;51.980;5.850;2023-04-02T21:05:05;1.40;;;1.30;;
51602;SDS011;37954;51.980;5.850;2023-04-02T21:09:17;2.33;;;1.40;;
51602;SDS011;37954;51.980;5.850;2023-04-02T21:13:30;2.83;;;1.40;;
51602;SDS011;37954;51.980;5.850;2023-04-02T21:17:43;4.00;;;1.40;;
51602;SDS011;37954;51.980;5.850;2023-04-02T21:21:55;2.67;;;1.83;;
51602;SDS011;37954;51.980;5.850;2023-04-02T21:30:45;2.10;;;1.63;;
51602;SDS011;37954;51.980;5.850;2023-04-02T21:34:57;2.40;;;1.43;;
51602;SDS011;37954;51.980;5.850;2023-04-02T21:39:09;2.03;;;1.30;;
51602;SDS011;37954;51.980;5.850;2023-04-02T21:43:33;4.60;;;1.30;;
51602;SDS011;37954;51.980;5.850;2023-04-02T21:47:45;4.63;;;1.37;;
51602;SDS011;37954;51.980;5.850;2023-04-02T21:51:56;1.17;;;1.03;;
51602;SDS011;37954;51.980;5.850;2023-04-02T21:56:10;2.87;;;1.60;;
51602;SDS011;37954;51.980;5.850;2023-04-02T22:00:26;2.30;;;1.10;;
51602;SDS011;37954;51.980;5.850;2023-04-02T22:04:38;1.70;;;1.20;;
51602;SDS011;37954;51.980;5.850;2023-04-02T22:08:55;1.33;;;1.00;;
51602;SDS011;37954;51.980;5.850;2023-04-02T22:13:11;1.87;;;1.30;;
51602;SDS011;37954;51.980;5.850;2023-04-02T22:17:23;2.03;;;1.17;;
51602;SDS011;37954;51.980;5.850;2023-04-02T22:21:35;2.20;;;1.33;;
51602;SDS011;37954;51.980;5.850;2023-04-02T22:25:47;1.77;;;1.23;;
51602;SDS011;37954;51.980;5.850;2023-04-02T22:29:59;1.80;;;1.60;;
51602;SDS011;37954;51.980;5.850;2023-04-02T22:34:11;2.60;;;1.40;;
51602;SDS011;37954;51.980;5.850;2023-04-02T22:38:22;1.93;;;1.10;;
51602;SDS011;37954;51.980;5.850;2023-04-02T22:42:34;1.83;;;1.40;;
51602;SDS011;37954;51.980;5.850;2023-04-02T22:46:48;4.50;;;1.37;;
51602;SDS011;37954;51.980;5.850;2023-04-02T22:51:00;1.67;;;1.40;;
51602;SDS011;37954;51.980;5.850;2023-04-02T22:55:12;1.10;;;0.90;;
51602;SDS011;37954;51.980;5.850;2023-04-02T22:59:25;2.97;;;1.57;;
51602;SDS011;37954;51.980;5.850;2023-04-02T23:03:37;2.53;;;1.40;;
51602;SDS011;37954;51.980;5.850;2023-04-02T23:07:48;1.87;;;1.17;;
51602;SDS011;37954;51.980;5.850;2023-04-02T23:12:00;3.30;;;1.30;;
51602;SDS011;37954;51.980;5.850;2023-04-02T23:16:12;1.50;;;1.10;;
51602;SDS011;37954;51.980;5.850;2023-04-02T23:20:25;1.30;;;1.10;;
51602;SDS011;37954;51.980;5.850;2023-04-02T23:24:36;1.40;;;1.20;;
51602;SDS011;37954;51.980;5.850;2023-04-02T23:28:48;2.00;;;1.20;;
51602;SDS011;37954;51.980;5.850;2023-04-02T23:33:01;9.03;;;1.30;;
51602;SDS011;37954;51.980;5.850;2023-04-02T23:37:15;1.43;;;1.30;;
51602;SDS011;37954;51.980;5.850;2023-04-02T23:41:27;1.73;;;1.20;;
51602;SDS011;37954;51.980;5.850;2023-04-02T23:45:40;1.30;;;1.20;;
51602;SDS011;37954;51.980;5.850;2023-04-02T23:49:57;1.50;;;1.00;;
51602;SDS011;37954;51.980;5.850;2023-04-02T23:54:12;1.90;;;1.47;;
51602;SDS011;37954;51.980;5.850;2023-04-02T23:58:24;2.23;;;1.40;;
